Terminal Aerodrome Forecast
Issued by NWS

Home | Current Version | Previous Version | Text Only | Print | Product List | Glossary On
Versions: 1 2 3 4 5 6 7 8 9 10 11 12 13 14 15 16 17
000
FTUS46 KSGX 181700
TAFONT
TAF
KONT 181720Z 1818/1924 VRB04KT P6SM VCSH SCT040 BKN080
     FM182100 26007KT P6SM SCT040 BKN080
     FM190300 VRB04KT P6SM SCT030
     FM190600 VRB04KT P6SM BKN020
     FM191400 VRB04KT P6SM SCT020
     FM192130 26008KT P6SM SCT030=

USA.gov is the U.S. government's official web portal to all federal, state and local government web resources and services.